NO-0028 weather

CLOSED Vestby Airfield
Vestby, Akershus, Norway

Public forecast

Using degrees Celsius for public forecast. Weather courtesy of forecast.io.

METAR (pilot weather report)

Closest report is Moss Airport, Rygge, 14.7 nm (27.3 km) S. Retrieved 2019/05/21 00:20 UTC (38 minutes ago):

ENRY 210020Z AUTO 35005KT 9999NDV SCT074/// 13/13 Q1010

TAF (pilot weather forecast)

Closest forecast is Moss Airport, Rygge, 14.7 nm (27.3 km) S. Retrieved 2019/05/21 00:03 UTC (55 minutes ago):

TAF TAF ENRY 202300Z 2100/2124 02008KT 9999 FEW010 BKN020 PROB30 TEMPO 2100/2108 2000 BR BKN004 PROB30 TEMPO 2112/2124 4000 TSRA BKN012 SCT025CB